sensor_id;sensor_type;location;lat;lon;timestamp;P1;durP1;ratioP1;P2;durP2;ratioP2
70715;SDS011;59053;50.832;12.882;2023-06-04T00:00:51;14.50;;;7.00;;
70715;SDS011;59053;50.832;12.882;2023-06-04T00:03:16;15.80;;;7.70;;
70715;SDS011;59053;50.832;12.882;2023-06-04T00:05:42;16.83;;;8.00;;
70715;SDS011;59053;50.832;12.882;2023-06-04T00:08:07;14.73;;;8.07;;
70715;SDS011;59053;50.832;12.882;2023-06-04T00:10:32;18.37;;;8.97;;
70715;SDS011;59053;50.832;12.882;2023-06-04T00:12:58;16.53;;;9.17;;
70715;SDS011;59053;50.832;12.882;2023-06-04T00:15:24;19.83;;;10.65;;
70715;SDS011;59053;50.832;12.882;2023-06-04T00:17:49;23.17;;;12.37;;
70715;SDS011;59053;50.832;12.882;2023-06-04T00:20:15;23.37;;;11.70;;
70715;SDS011;59053;50.832;12.882;2023-06-04T00:22:41;21.83;;;11.43;;
70715;SDS011;59053;50.832;12.882;2023-06-04T00:25:08;23.40;;;11.57;;
70715;SDS011;59053;50.832;12.882;2023-06-04T00:27:34;19.35;;;10.10;;
70715;SDS011;59053;50.832;12.882;2023-06-04T00:30:00;19.57;;;10.53;;
70715;SDS011;59053;50.832;12.882;2023-06-04T00:32:25;20.73;;;10.73;;
70715;SDS011;59053;50.832;12.882;2023-06-04T00:34:54;21.27;;;10.33;;
70715;SDS011;59053;50.832;12.882;2023-06-04T00:37:21;21.43;;;10.27;;
70715;SDS011;59053;50.832;12.882;2023-06-04T00:39:47;20.27;;;10.20;;
70715;SDS011;59053;50.832;12.882;2023-06-04T00:42:12;20.23;;;9.57;;
70715;SDS011;59053;50.832;12.882;2023-06-04T00:44:38;20.02;;;9.50;;
70715;SDS011;59053;50.832;12.882;2023-06-04T00:47:08;17.80;;;9.52;;
70715;SDS011;59053;50.832;12.882;2023-06-04T00:49:33;17.77;;;8.80;;
70715;SDS011;59053;50.832;12.882;2023-06-04T00:51:59;17.27;;;8.73;;
70715;SDS011;59053;50.832;12.882;2023-06-04T00:54:24;15.90;;;8.10;;
70715;SDS011;59053;50.832;12.882;2023-06-04T00:56:50;15.33;;;7.43;;
70715;SDS011;59053;50.832;12.882;2023-06-04T00:59:15;14.03;;;6.90;;
70715;SDS011;59053;50.832;12.882;2023-06-04T01:01:47;16.65;;;7.88;;
70715;SDS011;59053;50.832;12.882;2023-06-04T01:04:18;16.35;;;8.07;;
70715;SDS011;59053;50.832;12.882;2023-06-04T01:06:50;17.95;;;8.95;;
70715;SDS011;59053;50.832;12.882;2023-06-04T01:09:16;18.98;;;8.65;;
70715;SDS011;59053;50.832;12.882;2023-06-04T01:11:41;17.53;;;8.70;;
70715;SDS011;59053;50.832;12.882;2023-06-04T01:14:07;16.33;;;8.20;;
70715;SDS011;59053;50.832;12.882;2023-06-04T01:16:35;19.63;;;8.82;;
70715;SDS011;59053;50.832;12.882;2023-06-04T01:19:04;18.80;;;9.07;;
70715;SDS011;59053;50.832;12.882;2023-06-04T01:21:46;16.33;;;8.88;;
70715;SDS011;59053;50.832;12.882;2023-06-04T01:24:16;17.47;;;8.87;;
70715;SDS011;59053;50.832;12.882;2023-06-04T01:26:45;16.30;;;8.13;;
70715;SDS011;59053;50.832;12.882;2023-06-04T01:29:11;15.75;;;7.85;;
70715;SDS011;59053;50.832;12.882;2023-06-04T01:31:37;16.23;;;7.80;;
70715;SDS011;59053;50.832;12.882;2023-06-04T01:34:03;15.73;;;7.83;;
70715;SDS011;59053;50.832;12.882;2023-06-04T01:36:28;15.57;;;7.80;;
70715;SDS011;59053;50.832;12.882;2023-06-04T01:38:53;13.30;;;7.07;;
70715;SDS011;59053;50.832;12.882;2023-06-04T01:41:19;16.08;;;7.55;;
70715;SDS011;59053;50.832;12.882;2023-06-04T01:43:45;14.13;;;6.90;;
70715;SDS011;59053;50.832;12.882;2023-06-04T01:46:10;19.23;;;7.80;;
70715;SDS011;59053;50.832;12.882;2023-06-04T01:48:35;14.77;;;7.33;;
70715;SDS011;59053;50.832;12.882;2023-06-04T01:51:01;14.93;;;6.78;;
70715;SDS011;59053;50.832;12.882;2023-06-04T01:53:27;12.93;;;6.83;;
70715;SDS011;59053;50.832;12.882;2023-06-04T01:55:52;13.87;;;6.43;;
70715;SDS011;59053;50.832;12.882;2023-06-04T01:58:18;12.97;;;6.37;;
70715;SDS011;59053;50.832;12.882;2023-06-04T02:00:55;14.93;;;6.57;;
70715;SDS011;59053;50.832;12.882;2023-06-04T02:03:25;13.10;;;6.13;;
70715;SDS011;59053;50.832;12.882;2023-06-04T02:05:51;13.82;;;6.00;;
70715;SDS011;59053;50.832;12.882;2023-06-04T02:08:16;13.63;;;5.80;;
70715;SDS011;59053;50.832;12.882;2023-06-04T02:10:45;15.93;;;6.53;;
70715;SDS011;59053;50.832;12.882;2023-06-04T02:13:14;18.20;;;6.73;;
70715;SDS011;59053;50.832;12.882;2023-06-04T02:15:40;12.57;;;6.07;;
70715;SDS011;59053;50.832;12.882;2023-06-04T02:18:15;12.50;;;6.40;;
70715;SDS011;59053;50.832;12.882;2023-06-04T02:20:46;14.30;;;6.33;;
70715;SDS011;59053;50.832;12.882;2023-06-04T02:23:12;13.25;;;6.32;;
70715;SDS011;59053;50.832;12.882;2023-06-04T02:25:38;12.90;;;6.25;;
70715;SDS011;59053;50.832;12.882;2023-06-04T02:28:04;14.40;;;6.40;;
70715;SDS011;59053;50.832;12.882;2023-06-04T02:30:29;13.10;;;6.50;;
70715;SDS011;59053;50.832;12.882;2023-06-04T02:32:55;13.57;;;6.07;;
70715;SDS011;59053;50.832;12.882;2023-06-04T02:35:21;13.25;;;6.10;;
70715;SDS011;59053;50.832;12.882;2023-06-04T02:37:48;12.70;;;6.30;;
70715;SDS011;59053;50.832;12.882;2023-06-04T02:40:14;13.38;;;6.50;;
70715;SDS011;59053;50.832;12.882;2023-06-04T02:42:40;12.03;;;6.13;;
70715;SDS011;59053;50.832;12.882;2023-06-04T02:45:05;12.73;;;6.00;;
70715;SDS011;59053;50.832;12.882;2023-06-04T02:47:31;12.90;;;6.15;;
70715;SDS011;59053;50.832;12.882;2023-06-04T02:49:57;12.63;;;5.80;;
70715;SDS011;59053;50.832;12.882;2023-06-04T02:52:22;12.00;;;6.23;;
70715;SDS011;59053;50.832;12.882;2023-06-04T02:54:50;13.23;;;5.82;;
70715;SDS011;59053;50.832;12.882;2023-06-04T02:57:15;12.38;;;6.18;;
70715;SDS011;59053;50.832;12.882;2023-06-04T02:59:41;12.03;;;5.93;;
70715;SDS011;59053;50.832;12.882;2023-06-04T03:02:06;16.30;;;6.90;;
70715;SDS011;59053;50.832;12.882;2023-06-04T03:04:31;14.10;;;6.07;;
70715;SDS011;59053;50.832;12.882;2023-06-04T03:06:59;12.00;;;6.35;;
70715;SDS011;59053;50.832;12.882;2023-06-04T03:09:28;12.88;;;6.30;;
70715;SDS011;59053;50.832;12.882;2023-06-04T03:11:56;13.47;;;6.13;;
70715;SDS011;59053;50.832;12.882;2023-06-04T03:14:22;12.85;;;5.97;;
70715;SDS011;59053;50.832;12.882;2023-06-04T03:16:48;12.70;;;5.90;;
70715;SDS011;59053;50.832;12.882;2023-06-04T03:19:14;12.60;;;6.10;;
70715;SDS011;59053;50.832;12.882;2023-06-04T03:21:39;12.88;;;6.05;;
70715;SDS011;59053;50.832;12.882;2023-06-04T03:24:05;12.50;;;6.40;;
70715;SDS011;59053;50.832;12.882;2023-06-04T03:26:31;11.82;;;5.70;;
70715;SDS011;59053;50.832;12.882;2023-06-04T03:28:57;13.23;;;5.70;;
70715;SDS011;59053;50.832;12.882;2023-06-04T03:31:22;13.47;;;6.23;;
70715;SDS011;59053;50.832;12.882;2023-06-04T03:33:48;13.23;;;5.65;;
70715;SDS011;59053;50.832;12.882;2023-06-04T03:36:14;15.03;;;5.87;;
70715;SDS011;59053;50.832;12.882;2023-06-04T03:38:41;15.27;;;6.00;;
70715;SDS011;59053;50.832;12.882;2023-06-04T03:41:07;12.33;;;5.73;;
70715;SDS011;59053;50.832;12.882;2023-06-04T03:43:32;12.30;;;5.50;;
70715;SDS011;59053;50.832;12.882;2023-06-04T03:46:01;11.80;;;5.63;;
70715;SDS011;59053;50.832;12.882;2023-06-04T03:48:26;15.37;;;5.83;;
70715;SDS011;59053;50.832;12.882;2023-06-04T03:50:52;11.63;;;5.70;;
70715;SDS011;59053;50.832;12.882;2023-06-04T03:53:17;12.57;;;5.90;;
70715;SDS011;59053;50.832;12.882;2023-06-04T03:55:43;11.20;;;5.70;;
70715;SDS011;59053;50.832;12.882;2023-06-04T03:58:08;10.73;;;5.60;;
70715;SDS011;59053;50.832;12.882;2023-06-04T04:00:38;11.20;;;5.78;;
70715;SDS011;59053;50.832;12.882;2023-06-04T04:03:04;11.48;;;5.88;;
70715;SDS011;59053;50.832;12.882;2023-06-04T04:05:32;12.82;;;6.20;;
70715;SDS011;59053;50.832;12.882;2023-06-04T04:07:58;11.10;;;5.50;;
70715;SDS011;59053;50.832;12.882;2023-06-04T04:10:27;12.52;;;5.72;;
70715;SDS011;59053;50.832;12.882;2023-06-04T04:12:53;12.37;;;5.57;;
70715;SDS011;59053;50.832;12.882;2023-06-04T04:15:20;10.82;;;5.13;;
70715;SDS011;59053;50.832;12.882;2023-06-04T04:17:46;11.80;;;5.60;;
70715;SDS011;59053;50.832;12.882;2023-06-04T04:20:12;10.70;;;5.50;;
70715;SDS011;59053;50.832;12.882;2023-06-04T04:22:44;11.63;;;5.53;;
70715;SDS011;59053;50.832;12.882;2023-06-04T04:25:11;10.67;;;5.43;;
70715;SDS011;59053;50.832;12.882;2023-06-04T04:27:37;11.27;;;5.20;;
70715;SDS011;59053;50.832;12.882;2023-06-04T04:30:08;12.23;;;5.30;;
70715;SDS011;59053;50.832;12.882;2023-06-04T04:32:34;10.85;;;5.28;;
70715;SDS011;59053;50.832;12.882;2023-06-04T04:35:04;11.75;;;5.45;;
70715;SDS011;59053;50.832;12.882;2023-06-04T04:37:34;9.30;;;4.80;;
70715;SDS011;59053;50.832;12.882;2023-06-04T04:40:03;10.93;;;5.00;;
70715;SDS011;59053;50.832;12.882;2023-06-04T04:42:32;11.07;;;5.00;;
70715;SDS011;59053;50.832;12.882;2023-06-04T04:44:59;10.55;;;4.30;;
70715;SDS011;59053;50.832;12.882;2023-06-04T04:47:25;8.30;;;4.03;;
70715;SDS011;59053;50.832;12.882;2023-06-04T04:49:51;9.20;;;4.57;;
70715;SDS011;59053;50.832;12.882;2023-06-04T04:52:16;13.67;;;5.83;;
70715;SDS011;59053;50.832;12.882;2023-06-04T04:54:42;15.20;;;6.40;;
70715;SDS011;59053;50.832;12.882;2023-06-04T04:57:08;18.25;;;6.97;;
70715;SDS011;59053;50.832;12.882;2023-06-04T04:59:35;13.83;;;6.67;;
70715;SDS011;59053;50.832;12.882;2023-06-04T05:02:00;15.80;;;6.13;;
70715;SDS011;59053;50.832;12.882;2023-06-04T05:04:26;14.07;;;6.00;;
70715;SDS011;59053;50.832;12.882;2023-06-04T05:06:51;13.07;;;5.73;;
70715;SDS011;59053;50.832;12.882;2023-06-04T05:09:17;13.07;;;5.70;;
70715;SDS011;59053;50.832;12.882;2023-06-04T05:11:43;13.00;;;6.00;;
70715;SDS011;59053;50.832;12.882;2023-06-04T05:14:09;11.88;;;5.70;;
70715;SDS011;59053;50.832;12.882;2023-06-04T05:16:36;11.80;;;5.70;;
70715;SDS011;59053;50.832;12.882;2023-06-04T05:19:04;13.25;;;5.40;;
70715;SDS011;59053;50.832;12.882;2023-06-04T05:21:32;12.20;;;5.70;;
70715;SDS011;59053;50.832;12.882;2023-06-04T05:24:02;11.80;;;5.40;;
70715;SDS011;59053;50.832;12.882;2023-06-04T05:26:32;10.07;;;5.25;;
70715;SDS011;59053;50.832;12.882;2023-06-04T05:29:00;12.43;;;5.50;;
70715;SDS011;59053;50.832;12.882;2023-06-04T05:31:30;15.65;;;6.50;;
70715;SDS011;59053;50.832;12.882;2023-06-04T05:34:02;13.98;;;6.03;;
70715;SDS011;59053;50.832;12.882;2023-06-04T05:36:30;10.68;;;5.30;;
70715;SDS011;59053;50.832;12.882;2023-06-04T05:38:58;10.98;;;4.25;;
70715;SDS011;59053;50.832;12.882;2023-06-04T05:41:30;9.43;;;4.13;;
70715;SDS011;59053;50.832;12.882;2023-06-04T05:43:56;9.50;;;4.20;;
70715;SDS011;59053;50.832;12.882;2023-06-04T05:46:21;11.77;;;3.80;;
70715;SDS011;59053;50.832;12.882;2023-06-04T05:48:47;8.23;;;3.50;;
70715;SDS011;59053;50.832;12.882;2023-06-04T05:51:13;8.93;;;3.30;;
70715;SDS011;59053;50.832;12.882;2023-06-04T05:53:40;6.55;;;3.13;;
70715;SDS011;59053;50.832;12.882;2023-06-04T05:56:05;7.30;;;2.92;;
70715;SDS011;59053;50.832;12.882;2023-06-04T05:58:34;6.77;;;2.80;;
70715;SDS011;59053;50.832;12.882;2023-06-04T06:01:00;8.55;;;2.65;;
70715;SDS011;59053;50.832;12.882;2023-06-04T06:03:26;7.75;;;2.55;;
70715;SDS011;59053;50.832;12.882;2023-06-04T06:05:53;5.35;;;2.38;;
70715;SDS011;59053;50.832;12.882;2023-06-04T06:08:20;7.00;;;2.80;;
70715;SDS011;59053;50.832;12.882;2023-06-04T06:10:45;5.20;;;2.35;;
70715;SDS011;59053;50.832;12.882;2023-06-04T06:13:11;8.25;;;2.22;;
70715;SDS011;59053;50.832;12.882;2023-06-04T06:15:37;5.27;;;2.20;;
70715;SDS011;59053;50.832;12.882;2023-06-04T06:18:03;4.88;;;1.98;;
70715;SDS011;59053;50.832;12.882;2023-06-04T06:20:28;4.30;;;2.00;;
70715;SDS011;59053;50.832;12.882;2023-06-04T06:22:54;4.47;;;2.00;;
70715;SDS011;59053;50.832;12.882;2023-06-04T06:25:21;4.23;;;1.77;;
70715;SDS011;59053;50.832;12.882;2023-06-04T06:27:54;3.42;;;1.60;;
70715;SDS011;59053;50.832;12.882;2023-06-04T06:30:21;2.88;;;1.45;;
70715;SDS011;59053;50.832;12.882;2023-06-04T06:32:46;3.53;;;1.70;;
70715;SDS011;59053;50.832;12.882;2023-06-04T06:35:13;3.03;;;1.58;;
70715;SDS011;59053;50.832;12.882;2023-06-04T06:37:38;3.40;;;1.50;;
70715;SDS011;59053;50.832;12.882;2023-06-04T06:40:07;3.50;;;1.70;;
70715;SDS011;59053;50.832;12.882;2023-06-04T06:42:33;3.28;;;1.60;;
70715;SDS011;59053;50.832;12.882;2023-06-04T06:44:59;3.00;;;1.40;;
70715;SDS011;59053;50.832;12.882;2023-06-04T06:47:24;3.47;;;1.53;;
70715;SDS011;59053;50.832;12.882;2023-06-04T06:49:50;3.83;;;1.70;;
70715;SDS011;59053;50.832;12.882;2023-06-04T06:52:15;2.63;;;1.40;;
70715;SDS011;59053;50.832;12.882;2023-06-04T06:54:44;4.50;;;1.53;;
70715;SDS011;59053;50.832;12.882;2023-06-04T06:57:10;4.88;;;1.60;;
70715;SDS011;59053;50.832;12.882;2023-06-04T06:59:35;3.97;;;1.40;;
70715;SDS011;59053;50.832;12.882;2023-06-04T07:02:01;2.95;;;1.45;;
70715;SDS011;59053;50.832;12.882;2023-06-04T07:04:26;2.57;;;1.43;;
70715;SDS011;59053;50.832;12.882;2023-06-04T07:06:52;2.77;;;1.30;;
70715;SDS011;59053;50.832;12.882;2023-06-04T07:09:17;4.00;;;1.23;;
70715;SDS011;59053;50.832;12.882;2023-06-04T07:11:42;4.57;;;1.40;;
70715;SDS011;59053;50.832;12.882;2023-06-04T07:14:08;3.43;;;1.40;;
70715;SDS011;59053;50.832;12.882;2023-06-04T07:16:33;2.83;;;1.30;;
70715;SDS011;59053;50.832;12.882;2023-06-04T07:19:00;2.43;;;1.20;;
70715;SDS011;59053;50.832;12.882;2023-06-04T07:21:26;3.13;;;1.48;;
70715;SDS011;59053;50.832;12.882;2023-06-04T07:23:51;3.00;;;1.20;;
70715;SDS011;59053;50.832;12.882;2023-06-04T07:26:17;2.47;;;1.30;;
70715;SDS011;59053;50.832;12.882;2023-06-04T07:28:43;2.25;;;1.25;;
70715;SDS011;59053;50.832;12.882;2023-06-04T07:31:08;2.70;;;1.20;;
70715;SDS011;59053;50.832;12.882;2023-06-04T07:33:34;2.53;;;1.33;;
70715;SDS011;59053;50.832;12.882;2023-06-04T07:36:00;2.60;;;1.20;;
70715;SDS011;59053;50.832;12.882;2023-06-04T07:38:25;4.53;;;1.33;;
70715;SDS011;59053;50.832;12.882;2023-06-04T07:40:51;2.70;;;1.40;;
70715;SDS011;59053;50.832;12.882;2023-06-04T07:43:16;3.77;;;1.30;;
70715;SDS011;59053;50.832;12.882;2023-06-04T07:45:42;3.00;;;1.47;;
70715;SDS011;59053;50.832;12.882;2023-06-04T07:48:08;3.73;;;1.37;;
70715;SDS011;59053;50.832;12.882;2023-06-04T07:50:35;1.97;;;1.20;;
70715;SDS011;59053;50.832;12.882;2023-06-04T07:53:01;2.25;;;1.27;;
70715;SDS011;59053;50.832;12.882;2023-06-04T07:55:29;2.22;;;1.35;;
70715;SDS011;59053;50.832;12.882;2023-06-04T07:57:54;3.40;;;1.40;;
70715;SDS011;59053;50.832;12.882;2023-06-04T08:00:20;3.73;;;1.47;;
70715;SDS011;59053;50.832;12.882;2023-06-04T08:02:45;2.20;;;1.20;;
70715;SDS011;59053;50.832;12.882;2023-06-04T08:05:10;5.00;;;1.30;;
70715;SDS011;59053;50.832;12.882;2023-06-04T08:07:38;3.67;;;1.30;;
70715;SDS011;59053;50.832;12.882;2023-06-04T08:10:04;1.80;;;1.20;;
70715;SDS011;59053;50.832;12.882;2023-06-04T08:12:30;5.57;;;1.40;;
70715;SDS011;59053;50.832;12.882;2023-06-04T08:14:55;2.23;;;1.17;;
70715;SDS011;59053;50.832;12.882;2023-06-04T08:17:22;3.67;;;1.30;;
70715;SDS011;59053;50.832;12.882;2023-06-04T08:19:47;3.80;;;1.50;;
70715;SDS011;59053;50.832;12.882;2023-06-04T08:22:12;2.77;;;1.40;;
70715;SDS011;59053;50.832;12.882;2023-06-04T08:24:38;3.60;;;1.37;;
70715;SDS011;59053;50.832;12.882;2023-06-04T08:27:04;2.88;;;1.30;;
70715;SDS011;59053;50.832;12.882;2023-06-04T08:29:29;2.90;;;1.40;;
70715;SDS011;59053;50.832;12.882;2023-06-04T08:31:55;4.77;;;1.40;;
70715;SDS011;59053;50.832;12.882;2023-06-04T08:34:20;4.83;;;1.40;;
70715;SDS011;59053;50.832;12.882;2023-06-04T08:36:45;4.37;;;1.47;;
70715;SDS011;59053;50.832;12.882;2023-06-04T08:39:11;5.40;;;1.30;;
70715;SDS011;59053;50.832;12.882;2023-06-04T08:41:44;2.20;;;1.33;;
70715;SDS011;59053;50.832;12.882;2023-06-04T08:44:11;4.20;;;1.50;;
70715;SDS011;59053;50.832;12.882;2023-06-04T08:46:39;2.50;;;1.20;;
70715;SDS011;59053;50.832;12.882;2023-06-04T08:49:05;3.87;;;1.30;;
70715;SDS011;59053;50.832;12.882;2023-06-04T08:51:32;3.22;;;1.35;;
70715;SDS011;59053;50.832;12.882;2023-06-04T08:53:59;11.35;;;2.53;;
70715;SDS011;59053;50.832;12.882;2023-06-04T08:56:27;2.15;;;1.30;;
70715;SDS011;59053;50.832;12.882;2023-06-04T08:58:59;3.50;;;1.50;;
70715;SDS011;59053;50.832;12.882;2023-06-04T09:01:26;2.53;;;1.30;;
70715;SDS011;59053;50.832;12.882;2023-06-04T09:03:52;4.82;;;1.40;;
70715;SDS011;59053;50.832;12.882;2023-06-04T09:06:17;2.93;;;1.40;;
70715;SDS011;59053;50.832;12.882;2023-06-04T09:08:43;4.10;;;1.40;;
70715;SDS011;59053;50.832;12.882;2023-06-04T09:11:11;5.28;;;1.20;;
70715;SDS011;59053;50.832;12.882;2023-06-04T09:13:38;4.18;;;1.50;;
70715;SDS011;59053;50.832;12.882;2023-06-04T09:16:05;6.95;;;1.38;;
70715;SDS011;59053;50.832;12.882;2023-06-04T09:18:30;4.37;;;1.50;;
70715;SDS011;59053;50.832;12.882;2023-06-04T09:21:00;3.03;;;1.58;;
70715;SDS011;59053;50.832;12.882;2023-06-04T09:23:44;3.05;;;1.25;;
70715;SDS011;59053;50.832;12.882;2023-06-04T09:26:10;3.17;;;1.40;;
70715;SDS011;59053;50.832;12.882;2023-06-04T09:28:39;3.50;;;1.30;;
70715;SDS011;59053;50.832;12.882;2023-06-04T09:31:07;2.70;;;1.30;;
70715;SDS011;59053;50.832;12.882;2023-06-04T09:33:45;3.17;;;1.27;;
70715;SDS011;59053;50.832;12.882;2023-06-04T09:36:11;3.57;;;1.50;;
70715;SDS011;59053;50.832;12.882;2023-06-04T09:38:37;4.60;;;1.60;;
70715;SDS011;59053;50.832;12.882;2023-06-04T09:41:16;3.40;;;1.50;;
70715;SDS011;59053;50.832;12.882;2023-06-04T09:43:41;5.93;;;1.20;;
70715;SDS011;59053;50.832;12.882;2023-06-04T09:46:09;4.97;;;1.30;;
70715;SDS011;59053;50.832;12.882;2023-06-04T09:51:27;4.85;;;1.27;;
70715;SDS011;59053;50.832;12.882;2023-06-04T09:53:54;4.03;;;1.40;;
70715;SDS011;59053;50.832;12.882;2023-06-04T09:56:21;1.23;;;0.90;;
70715;SDS011;59053;50.832;12.882;2023-06-04T09:58:53;2.77;;;1.30;;
70715;SDS011;59053;50.832;12.882;2023-06-04T10:01:26;4.72;;;1.40;;
70715;SDS011;59053;50.832;12.882;2023-06-04T10:03:58;3.23;;;1.30;;
70715;SDS011;59053;50.832;12.882;2023-06-04T10:06:28;2.40;;;1.30;;
70715;SDS011;59053;50.832;12.882;2023-06-04T10:09:05;3.97;;;1.40;;
70715;SDS011;59053;50.832;12.882;2023-06-04T10:11:37;6.68;;;1.52;;
70715;SDS011;59053;50.832;12.882;2023-06-04T10:14:16;3.45;;;1.50;;
70715;SDS011;59053;50.832;12.882;2023-06-04T10:16:50;2.90;;;1.30;;
70715;SDS011;59053;50.832;12.882;2023-06-04T10:19:16;4.00;;;1.50;;
70715;SDS011;59053;50.832;12.882;2023-06-04T10:21:47;3.08;;;1.40;;
70715;SDS011;59053;50.832;12.882;2023-06-04T10:24:13;4.18;;;1.40;;
70715;SDS011;59053;50.832;12.882;2023-06-04T10:26:39;2.25;;;1.15;;
70715;SDS011;59053;50.832;12.882;2023-06-04T10:29:05;4.00;;;1.53;;
70715;SDS011;59053;50.832;12.882;2023-06-04T10:31:31;3.25;;;1.50;;
70715;SDS011;59053;50.832;12.882;2023-06-04T10:33:57;4.07;;;1.40;;
70715;SDS011;59053;50.832;12.882;2023-06-04T10:36:23;4.07;;;1.50;;
70715;SDS011;59053;50.832;12.882;2023-06-04T10:38:50;2.97;;;1.50;;
70715;SDS011;59053;50.832;12.882;2023-06-04T10:41:17;5.67;;;1.70;;
70715;SDS011;59053;50.832;12.882;2023-06-04T10:43:47;3.38;;;1.38;;
70715;SDS011;59053;50.832;12.882;2023-06-04T10:46:16;1.98;;;1.30;;
70715;SDS011;59053;50.832;12.882;2023-06-04T10:51:12;2.90;;;1.40;;
70715;SDS011;59053;50.832;12.882;2023-06-04T10:53:37;3.93;;;1.53;;
70715;SDS011;59053;50.832;12.882;2023-06-04T10:56:02;3.30;;;1.57;;
70715;SDS011;59053;50.832;12.882;2023-06-04T10:58:34;4.63;;;1.70;;
70715;SDS011;59053;50.832;12.882;2023-06-04T11:00:59;3.47;;;1.60;;
70715;SDS011;59053;50.832;12.882;2023-06-04T11:03:34;3.67;;;1.50;;
70715;SDS011;59053;50.832;12.882;2023-06-04T11:06:01;3.33;;;1.50;;
70715;SDS011;59053;50.832;12.882;2023-06-04T11:08:27;2.93;;;1.30;;
70715;SDS011;59053;50.832;12.882;2023-06-04T11:10:54;4.22;;;1.60;;
70715;SDS011;59053;50.832;12.882;2023-06-04T11:13:25;2.88;;;1.30;;
70715;SDS011;59053;50.832;12.882;2023-06-04T11:15:51;4.70;;;1.40;;
70715;SDS011;59053;50.832;12.882;2023-06-04T11:18:17;4.78;;;1.38;;
70715;SDS011;59053;50.832;12.882;2023-06-04T11:20:44;3.25;;;1.60;;
70715;SDS011;59053;50.832;12.882;2023-06-04T11:23:11;3.70;;;1.70;;
70715;SDS011;59053;50.832;12.882;2023-06-04T11:25:37;3.22;;;1.50;;
70715;SDS011;59053;50.832;12.882;2023-06-04T11:28:03;5.55;;;1.60;;
70715;SDS011;59053;50.832;12.882;2023-06-04T11:30:28;3.27;;;1.30;;
70715;SDS011;59053;50.832;12.882;2023-06-04T11:33:03;2.37;;;1.40;;
70715;SDS011;59053;50.832;12.882;2023-06-04T11:35:30;3.53;;;1.60;;
70715;SDS011;59053;50.832;12.882;2023-06-04T11:37:56;5.13;;;1.70;;
70715;SDS011;59053;50.832;12.882;2023-06-04T11:40:23;3.88;;;1.60;;
70715;SDS011;59053;50.832;12.882;2023-06-04T11:42:48;4.43;;;1.57;;
70715;SDS011;59053;50.832;12.882;2023-06-04T11:45:15;3.88;;;1.80;;
70715;SDS011;59053;50.832;12.882;2023-06-04T11:47:46;4.27;;;1.73;;
70715;SDS011;59053;50.832;12.882;2023-06-04T11:50:12;7.95;;;1.60;;
70715;SDS011;59053;50.832;12.882;2023-06-04T11:52:37;6.68;;;1.80;;
70715;SDS011;59053;50.832;12.882;2023-06-04T11:55:04;3.80;;;1.90;;
70715;SDS011;59053;50.832;12.882;2023-06-04T11:57:32;6.45;;;1.60;;
70715;SDS011;59053;50.832;12.882;2023-06-04T11:59:58;3.00;;;1.60;;
70715;SDS011;59053;50.832;12.882;2023-06-04T12:02:23;2.63;;;1.70;;
70715;SDS011;59053;50.832;12.882;2023-06-04T12:04:49;2.77;;;1.57;;
70715;SDS011;59053;50.832;12.882;2023-06-04T12:07:19;3.15;;;1.55;;
70715;SDS011;59053;50.832;12.882;2023-06-04T12:09:46;3.33;;;1.60;;
70715;SDS011;59053;50.832;12.882;2023-06-04T12:12:11;2.30;;;1.43;;
70715;SDS011;59053;50.832;12.882;2023-06-04T12:14:37;2.80;;;1.70;;
70715;SDS011;59053;50.832;12.882;2023-06-04T12:17:09;2.53;;;1.60;;
70715;SDS011;59053;50.832;12.882;2023-06-04T12:19:45;2.72;;;1.40;;
70715;SDS011;59053;50.832;12.882;2023-06-04T12:22:12;3.25;;;1.80;;
70715;SDS011;59053;50.832;12.882;2023-06-04T12:24:50;4.00;;;1.63;;
70715;SDS011;59053;50.832;12.882;2023-06-04T12:27:19;2.38;;;1.40;;
70715;SDS011;59053;50.832;12.882;2023-06-04T12:29:56;6.03;;;1.63;;
70715;SDS011;59053;50.832;12.882;2023-06-04T12:32:29;5.03;;;1.70;;
70715;SDS011;59053;50.832;12.882;2023-06-04T12:34:54;3.58;;;1.70;;
70715;SDS011;59053;50.832;12.882;2023-06-04T12:37:21;3.30;;;1.50;;
70715;SDS011;59053;50.832;12.882;2023-06-04T12:39:47;4.35;;;1.60;;
70715;SDS011;59053;50.832;12.882;2023-06-04T12:42:12;2.65;;;1.60;;
70715;SDS011;59053;50.832;12.882;2023-06-04T12:44:38;3.03;;;1.80;;
70715;SDS011;59053;50.832;12.882;2023-06-04T12:47:04;3.03;;;1.70;;
70715;SDS011;59053;50.832;12.882;2023-06-04T12:49:30;3.63;;;1.70;;
70715;SDS011;59053;50.832;12.882;2023-06-04T12:51:56;2.60;;;1.50;;
70715;SDS011;59053;50.832;12.882;2023-06-04T12:54:21;2.20;;;1.50;;
70715;SDS011;59053;50.832;12.882;2023-06-04T12:56:46;5.40;;;1.63;;
70715;SDS011;59053;50.832;12.882;2023-06-04T12:59:12;2.13;;;1.40;;
70715;SDS011;59053;50.832;12.882;2023-06-04T13:01:37;2.95;;;1.70;;
70715;SDS011;59053;50.832;12.882;2023-06-04T13:04:03;3.03;;;1.60;;
70715;SDS011;59053;50.832;12.882;2023-06-04T13:06:29;3.13;;;1.70;;
70715;SDS011;59053;50.832;12.882;2023-06-04T13:08:54;5.77;;;1.70;;
70715;SDS011;59053;50.832;12.882;2023-06-04T13:11:20;3.13;;;1.60;;
70715;SDS011;59053;50.832;12.882;2023-06-04T13:13:45;4.60;;;1.83;;
70715;SDS011;59053;50.832;12.882;2023-06-04T13:16:10;2.80;;;1.70;;
70715;SDS011;59053;50.832;12.882;2023-06-04T13:18:39;2.70;;;1.60;;
70715;SDS011;59053;50.832;12.882;2023-06-04T13:21:07;1.98;;;1.65;;
70715;SDS011;59053;50.832;12.882;2023-06-04T13:23:32;2.27;;;1.70;;
70715;SDS011;59053;50.832;12.882;2023-06-04T13:25:58;3.97;;;1.67;;
70715;SDS011;59053;50.832;12.882;2023-06-04T13:28:23;2.50;;;1.70;;
70715;SDS011;59053;50.832;12.882;2023-06-04T13:30:48;4.63;;;1.90;;
70715;SDS011;59053;50.832;12.882;2023-06-04T13:33:14;1.57;;;1.47;;
70715;SDS011;59053;50.832;12.882;2023-06-04T13:35:39;4.33;;;1.70;;
70715;SDS011;59053;50.832;12.882;2023-06-04T13:38:05;3.83;;;1.50;;
70715;SDS011;59053;50.832;12.882;2023-06-04T13:40:34;2.88;;;1.70;;
70715;SDS011;59053;50.832;12.882;2023-06-04T13:43:00;1.75;;;1.35;;
70715;SDS011;59053;50.832;12.882;2023-06-04T13:45:25;3.50;;;1.60;;
70715;SDS011;59053;50.832;12.882;2023-06-04T13:47:51;4.03;;;1.53;;
70715;SDS011;59053;50.832;12.882;2023-06-04T13:50:16;3.58;;;1.55;;
70715;SDS011;59053;50.832;12.882;2023-06-04T13:52:42;4.13;;;1.73;;
70715;SDS011;59053;50.832;12.882;2023-06-04T13:55:07;3.00;;;1.70;;
70715;SDS011;59053;50.832;12.882;2023-06-04T13:57:33;4.03;;;1.48;;
70715;SDS011;59053;50.832;12.882;2023-06-04T13:59:58;5.17;;;1.73;;
70715;SDS011;59053;50.832;12.882;2023-06-04T14:02:24;1.90;;;1.40;;
70715;SDS011;59053;50.832;12.882;2023-06-04T14:04:52;2.80;;;1.50;;
70715;SDS011;59053;50.832;12.882;2023-06-04T14:07:18;2.30;;;1.80;;
70715;SDS011;59053;50.832;12.882;2023-06-04T14:09:44;2.67;;;1.70;;
70715;SDS011;59053;50.832;12.882;2023-06-04T14:12:09;2.70;;;1.63;;
70715;SDS011;59053;50.832;12.882;2023-06-04T14:14:35;3.10;;;1.70;;
70715;SDS011;59053;50.832;12.882;2023-06-04T14:17:03;4.50;;;1.70;;
70715;SDS011;59053;50.832;12.882;2023-06-04T14:19:29;4.78;;;1.70;;
70715;SDS011;59053;50.832;12.882;2023-06-04T14:21:55;2.33;;;1.70;;
70715;SDS011;59053;50.832;12.882;2023-06-04T14:24:20;2.63;;;1.77;;
70715;SDS011;59053;50.832;12.882;2023-06-04T14:26:46;2.53;;;1.42;;
70715;SDS011;59053;50.832;12.882;2023-06-04T14:29:11;4.17;;;1.90;;
70715;SDS011;59053;50.832;12.882;2023-06-04T14:31:36;3.40;;;1.70;;